Time;durP1;ratioP1;P1;durP2;ratioP2;P2;SDS_P1;SDS_P2;PMS_P1;PMS_P2;Temp;Humidity;BMP_temperature;BMP_pressure;BME280_temperature;BME280_humidity;BME280_pressure;Samples;Min_cycle;Max_cycle;Signal;HPM_P1;HPM_P2
2023/10/10 00:01:05;;;;;;;;;;;;;;;22.91;48.79;101042.88;7393204;19;1836;-42
2023/10/10 00:03:36;;;;;;;;;;;;;;;22.86;48.93;101062.22;7391416;19;1851;-42
2023/10/10 00:06:08;;;;;;;;;;;;;;;22.86;48.60;101056.84;7393285;19;1824;-42
2023/10/10 00:08:40;;;;;;;;;;;;;;;22.88;48.70;101043.19;7394259;19;1551;-42
2023/10/10 00:11:14;;;;;;;;;;;;;;;22.87;48.57;101026.16;7393738;19;1828;-41
2023/10/10 00:13:46;;;;;;;;;;;;;;;22.89;48.75;101031.41;7392451;19;1836;-42
2023/10/10 00:16:19;;;;;;;;;;;;;;;22.91;48.47;101045.59;7392935;19;1749;-42
2023/10/10 00:18:49;;;;;;;;;;;;;;;22.94;48.54;101053.34;7392625;19;2159;-42
2023/10/10 00:21:23;;;;;;;;;;;;;;;22.94;48.46;101043.44;7394721;19;1724;-42
2023/10/10 00:23:55;;;;;;;;;;;;;;;22.89;48.54;101056.50;7392496;19;1467;-42
2023/10/10 00:26:25;;;;;;;;;;;;;;;22.89;48.67;101059.22;7392947;19;1761;-42
2023/10/10 00:28:57;;;;;;;;;;;;;;;22.88;48.68;101060.22;7392187;19;1734;-42
2023/10/10 00:31:26;;;;;;;;;;;;;;;22.93;48.58;101066.00;7393072;19;1448;-42
2023/10/10 00:33:56;;;;;;;;;;;;;;;22.94;48.35;101054.22;7392193;19;1057;-42
2023/10/10 00:36:31;;;;;;;;;;;;;;;22.91;48.34;101048.28;7392828;19;1823;-42
2023/10/10 00:39:06;;;;;;;;;;;;;;;22.99;48.11;101051.03;7391820;19;1825;-42
2023/10/10 00:41:42;;;;;;;;;;;;;;;22.90;48.44;101046.56;7399413;19;1843;-42
2023/10/10 00:44:12;;;;;;;;;;;;;;;22.88;48.42;101052.13;7399493;19;1836;-42
2023/10/10 00:46:40;;;;;;;;;;;;;;;22.91;48.44;101057.22;7399807;19;1614;-42
2023/10/10 00:49:13;;;;;;;;;;;;;;;22.91;48.54;101054.50;7399904;19;1733;-42
2023/10/10 00:51:46;;;;;;;;;;;;;;;22.91;48.47;101059.91;7399348;19;1602;-42
2023/10/10 00:54:26;;;;;;;;;;;;;;;22.87;48.63;101053.13;7399786;19;1827;-42
2023/10/10 00:56:56;;;;;;;;;;;;;;;22.84;48.52;101050.75;7398392;19;1598;-42
2023/10/10 00:59:29;;;;;;;;;;;;;;;22.91;48.61;101064.47;7397789;19;1816;-42
2023/10/10 01:01:58;;;;;;;;;;;;;;;22.89;48.42;101050.28;7399722;19;1849;-42
2023/10/10 01:04:35;;;;;;;;;;;;;;;22.91;48.44;101065.28;7399444;19;1744;-41
2023/10/10 01:07:06;;;;;;;;;;;;;;;22.90;48.49;101055.53;7400198;19;1552;-42
2023/10/10 01:09:40;;;;;;;;;;;;;;;22.93;48.33;101062.44;7398395;19;1713;-42
2023/10/10 01:12:09;;;;;;;;;;;;;;;22.82;48.55;101055.47;7397309;19;1460;-42
2023/10/10 01:14:38;;;;;;;;;;;;;;;22.84;48.59;101054.28;7398646;19;1750;-42
2023/10/10 01:17:11;;;;;;;;;;;;;;;22.83;48.68;101078.72;7399029;19;1570;-42
2023/10/10 01:19:44;;;;;;;;;;;;;;;22.91;48.56;101059.91;7398003;19;1511;-42
2023/10/10 01:22:22;;;;;;;;;;;;;;;22.86;48.62;101064.94;7399380;19;1848;-42
2023/10/10 01:24:54;;;;;;;;;;;;;;;22.57;48.56;101044.41;7399093;19;1749;-42
2023/10/10 01:27:22;;;;;;;;;;;;;;;22.73;48.74;101070.69;7397147;19;1484;-42
2023/10/10 01:30:17;;;;;;;;;;;;;;;22.55;48.69;101034.78;7397933;19;1554;-42
2023/10/10 01:32:41;;;;;;;;;;;;;;;22.74;48.81;101091.28;7398193;19;2278;-42
2023/10/10 01:35:16;;;;;;;;;;;;;;;22.70;48.55;101072.84;7397053;19;1803;-42
2023/10/10 01:37:54;;;;;;;;;;;;;;;22.68;48.67;101080.22;7398932;19;1780;-42
2023/10/10 01:40:27;;;;;;;;;;;;;;;22.71;48.53;101088.84;7398204;19;1735;-42
2023/10/10 01:42:59;;;;;;;;;;;;;;;22.65;48.57;101065.22;7397926;19;1838;-42
2023/10/10 01:45:27;;;;;;;;;;;;;;;22.70;48.69;101078.22;7397847;19;1770;-42
2023/10/10 01:48:03;;;;;;;;;;;;;;;22.66;48.72;101083.09;7397764;19;1603;-42
2023/10/10 01:50:31;;;;;;;;;;;;;;;22.73;48.66;101078.78;7396723;19;1748;-44
2023/10/10 01:53:03;;;;;;;;;;;;;;;22.73;48.42;101080.63;7396563;19;1541;-42
2023/10/10 01:55:33;;;;;;;;;;;;;;;22.66;48.69;101071.44;7396438;19;1906;-42
2023/10/10 01:58:10;;;;;;;;;;;;;;;22.66;48.41;101063.34;7396872;19;1437;-42
2023/10/10 02:00:36;;;;;;;;;;;;;;;22.67;48.48;101057.81;7398505;19;1499;-42
2023/10/10 02:03:04;;;;;;;;;;;;;;;22.62;48.52;101063.69;7397062;19;1857;-42
2023/10/10 02:05:43;;;;;;;;;;;;;;;22.71;48.54;101061.06;7397540;19;1507;-42
2023/10/10 02:08:17;;;;;;;;;;;;;;;22.65;48.59;101059.81;7397357;19;1555;-42
2023/10/10 02:10:46;;;;;;;;;;;;;;;22.64;48.63;101048.19;7397688;19;1523;-42
2023/10/10 02:13:17;;;;;;;;;;;;;;;22.64;48.36;101060.81;7394028;19;1485;-42
2023/10/10 02:15:45;;;;;;;;;;;;;;;22.70;48.41;101053.97;7395525;19;1540;-42
2023/10/10 02:18:23;;;;;;;;;;;;;;;22.71;48.36;101047.59;7395323;19;1483;-42
2023/10/10 02:20:55;;;;;;;;;;;;;;;22.71;48.57;101058.38;7397931;19;1571;-42
2023/10/10 02:23:36;;;;;;;;;;;;;;;22.64;48.49;101045.50;7396442;19;1846;-43
2023/10/10 02:26:23;;;;;;;;;;;;;;;22.65;48.56;101054.44;7398593;19;1500;-49
2023/10/10 02:29:17;;;;;;;;;;;;;;;22.75;48.17;101059.75;7401198;19;1618;-42
2023/10/10 02:31:45;;;;;;;;;;;;;;;22.67;48.51;101062.38;7397763;19;2211;-42
2023/10/10 02:34:14;;;;;;;;;;;;;;;22.61;48.42;101059.28;7400084;19;1550;-42
2023/10/10 02:36:44;;;;;;;;;;;;;;;22.63;48.59;101073.44;7400820;19;1737;-42
2023/10/10 02:39:27;;;;;;;;;;;;;;;22.62;48.38;101063.69;7396591;19;1423;-42
2023/10/10 02:41:59;;;;;;;;;;;;;;;22.67;48.58;101078.53;7399026;19;1300;-45
2023/10/10 02:47:10;;;;;;;;;;;;;;;22.66;48.55;101082.22;7398469;19;1990;-42
2023/10/10 02:49:41;;;;;;;;;;;;;;;22.68;48.43;101085.63;7396738;19;1919;-42
2023/10/10 02:52:14;;;;;;;;;;;;;;;22.66;48.37;101093.00;7397359;19;1789;-42
2023/10/10 02:54:53;;;;;;;;;;;;;;;22.65;48.44;101086.78;7395062;19;1526;-42
2023/10/10 02:57:39;;;;;;;;;;;;;;;22.63;48.57;101088.78;7396466;19;1794;-42
2023/10/10 03:00:30;;;;;;;;;;;;;;;22.63;48.60;101086.06;7394540;19;1479;-42
2023/10/10 03:03:02;;;;;;;;;;;;;;;22.64;48.60;101098.53;7393858;19;1830;-42
2023/10/10 03:05:43;;;;;;;;;;;;;;;22.63;48.45;101083.38;7395224;19;1824;-42
2023/10/10 03:08:18;;;;;;;;;;;;;;;22.64;48.39;101075.16;7395847;19;1763;-42
2023/10/10 03:11:00;;;;;;;;;;;;;;;22.63;48.66;101081.53;7394793;19;1557;-42
2023/10/10 03:13:45;;;;;;;;;;;;;;;22.63;48.59;101073.44;7395288;19;1951;-42
2023/10/10 03:16:40;;;;;;;;;;;;;;;22.64;48.60;101068.88;7394851;19;1918;-42
2023/10/10 03:19:26;;;;;;;;;;;;;;;22.65;48.50;101092.16;7393921;19;2287;-42
2023/10/10 03:22:19;;;;;;;;;;;;;;;22.62;48.58;101097.84;7395998;19;1074;-42
2023/10/10 03:28:05;;;;;;;;;;;;;;;22.54;48.63;101068.97;7388649;19;2661;-42
2023/10/10 03:30:50;;;;;;;;;;;;;;;22.71;48.38;101098.81;7390369;19;1475;-42
2023/10/10 03:33:35;;;;;;;;;;;;;;;22.68;48.25;101091.00;7389066;19;1568;-42
2023/10/10 03:36:08;;;;;;;;;;;;;;;22.66;48.50;101093.00;7390989;19;1498;-42
2023/10/10 05:23:29;;;;;;;;;;;;;;;22.71;48.43;101107.72;7385003;19;2077;-42
2023/10/10 05:24:18;;;;;;;;;;;;;;;20.83;36.98;101202.47;7381666;19;1859;-42
2023/10/10 05:26:49;;;;;;;;;;;;;;;20.75;37.06;101189.75;7376520;19;2023;-45
2023/10/10 05:29:19;;;;;;;;;;;;;;;20.75;37.16;101200.50;7399289;19;1551;-45
2023/10/10 05:31:48;;;;;;;;;;;;;;;20.71;37.00;101206.25;7398556;19;1570;-45
2023/10/10 05:34:16;;;;;;;;;;;;;;;20.84;36.88;101202.34;7396630;19;1678;-45
2023/10/10 05:36:48;;;;;;;;;;;;;;;20.90;36.44;101200.09;7397555;19;1434;-45
2023/10/10 05:39:21;;;;;;;;;;;;;;;20.91;36.46;101204.47;7398257;19;1578;-46
2023/10/10 05:41:54;;;;;;;;;;;;;;;20.54;36.69;101151.31;7397827;19;1527;-47
2023/10/10 05:44:23;;;;;;;;;;;;;;;20.50;36.85;101198.25;7393713;19;1834;-47
2023/10/10 05:46:52;;;;;;;;;;;;;;;20.90;36.22;101200.09;7396672;19;1539;-47
2023/10/10 05:49:21;;;;;;;;;;;;;;;21.02;35.82;101204.38;7397083;19;1440;-46
2023/10/10 05:51:52;;;;;;;;;;;;;;;21.13;35.81;101201.59;7395795;19;1641;-46
2023/10/10 05:54:21;;;;;;;;;;;;;;;21.23;35.60;101204.28;7395943;19;1551;-45
2023/10/10 05:56:49;;;;;;;;;;;;;;;21.33;35.38;101206.97;7395040;19;1638;-46
2023/10/10 05:59:17;;;;;;;;;;;;;;;21.41;35.41;101215.22;7395455;19;1523;-47
2023/10/10 06:01:46;;;;;;;;;;;;;;;21.44;35.52;101213.09;7393461;19;1650;-46
2023/10/10 06:04:14;;;;;;;;;;;;;;;21.53;35.52;101208.72;7394513;19;1837;-46
2023/10/10 06:06:43;;;;;;;;;;;;;;;21.19;35.79;101210.94;7396874;19;1499;-47
2023/10/10 06:09:18;;;;;;;;;;;;;;;20.88;36.08;101216.38;7393473;19;1737;-46
2023/10/10 06:11:47;;;;;;;;;;;;;;;20.83;36.38;101218.59;7396484;19;1424;-47
2023/10/10 06:14:15;;;;;;;;;;;;;;;20.84;36.49;101212.25;7393891;19;1792;-46
2023/10/10 06:16:44;;;;;;;;;;;;;;;20.58;37.16;101238.72;7396035;19;1341;-46
2023/10/10 06:19:20;;;;;;;;;;;;;;;20.99;36.71;101235.09;7390765;19;1507;-45
2023/10/10 06:21:49;;;;;;;;;;;;;;;21.12;36.71;101242.06;7397516;19;1336;-45
2023/10/10 06:24:20;;;;;;;;;;;;;;;21.05;36.60;101237.22;7394906;19;1867;-45
2023/10/10 06:26:51;;;;;;;;;;;;;;;21.23;36.69;101233.88;7381600;19;1552;-45
2023/10/10 06:29:19;;;;;;;;;;;;;;;21.22;36.45;101227.63;7396912;19;1752;-45
2023/10/10 06:31:49;;;;;;;;;;;;;;;21.16;37.09;101255.06;7393569;19;1777;-45
2023/10/10 06:34:22;;;;;;;;;;;;;;;21.52;36.90;101247.38;7394367;19;1726;-42
2023/10/10 06:36:52;;;;;;;;;;;;;;;21.71;37.83;101262.69;7388101;19;1523;-42
2023/10/10 06:39:32;;;;;;;;;;;;;;;21.79;37.59;101252.06;7390510;19;1467;-42
2023/10/10 06:42:03;;;;;;;;;;;;;;;21.77;37.97;101240.59;7393408;19;1371;-42
2023/10/10 06:44:35;;;;;;;;;;;;;;;21.78;38.11;101260.28;7389807;19;1849;-42
2023/10/10 06:47:08;;;;;;;;;;;;;;;21.81;38.18;101260.84;7391982;19;1832;-42
2023/10/10 06:49:53;;;;;;;;;;;;;;;21.95;38.24;101261.41;7391324;19;1912;-42
2023/10/10 06:52:23;;;;;;;;;;;;;;;22.05;38.13;101265.78;7392011;19;2080;-42
2023/10/10 06:54:57;;;;;;;;;;;;;;;22.16;38.45;101264.81;7389720;19;1844;-41
2023/10/10 06:57:35;;;;;;;;;;;;;;;22.30;38.14;101271.59;7391416;19;1455;-41
2023/10/10 07:00:08;;;;;;;;;;;;;;;22.40;38.58;101272.44;7391609;19;1844;-41
2023/10/10 07:02:40;;;;;;;;;;;;;;;22.46;38.52;101260.19;7391220;19;1544;-41
2023/10/10 07:05:15;;;;;;;;;;;;;;;22.55;38.49;101272.81;7393594;19;1864;-41
2023/10/10 07:07:43;;;;;;;;;;;;;;;22.50;38.81;101258.94;7395656;19;1499;-41
2023/10/10 07:10:24;;;;;;;;;;;;;;;22.55;38.75;101264.72;7395178;19;1721;-41
2023/10/10 07:12:54;;;;;;;;;;;;;;;22.64;38.77;101260.28;7395651;19;1562;-41
2023/10/10 07:15:23;;;;;;;;;;;;;;;22.70;38.81;101270.50;7394559;19;1523;-41
2023/10/10 07:18:04;;;;;;;;;;;;;;;22.74;38.57;101284.50;7394808;19;1828;-41
2023/10/10 07:23:13;;;;;;;;;;;;;;;22.64;38.55;101271.06;7396477;19;1862;-41
2023/10/10 07:25:58;;;;;;;;;;;;;;;22.66;38.83;101281.72;7383747;19;1926;-41
2023/10/10 07:28:26;;;;;;;;;;;;;;;22.63;38.97;101270.22;7395169;19;1411;-41
2023/10/10 07:30:55;;;;;;;;;;;;;;;22.74;38.97;101273.72;7394256;19;1963;-41
2023/10/10 07:33:29;;;;;;;;;;;;;;;22.68;39.13;101269.81;7393857;19;1495;-43
2023/10/10 07:35:59;;;;;;;;;;;;;;;22.73;39.09;101272.03;7394561;19;1803;-43
2023/10/10 07:38:29;;;;;;;;;;;;;;;22.90;38.81;101279.38;7395656;19;1468;-43
2023/10/10 07:40:57;;;;;;;;;;;;;;;22.93;38.60;101268.25;7395374;19;1733;-43
2023/10/10 07:43:27;;;;;;;;;;;;;;;22.87;38.94;101278.81;7395150;19;1853;-43
2023/10/10 07:45:55;;;;;;;;;;;;;;;22.83;39.04;101283.63;7395624;19;1705;-41
2023/10/10 07:48:39;;;;;;;;;;;;;;;22.91;38.85;101288.28;7394737;19;1820;-41
2023/10/10 07:51:08;;;;;;;;;;;;;;;22.81;38.81;101280.25;7395274;19;1669;-41
2023/10/10 07:53:44;;;;;;;;;;;;;;;22.85;38.73;101281.63;7394538;19;1832;-41
2023/10/10 07:56:16;;;;;;;;;;;;;;;22.85;38.99;101270.84;7394240;19;1799;-41
2023/10/10 07:58:49;;;;;;;;;;;;;;;22.85;38.98;101281.63;7395534;19;1603;-41
2023/10/10 08:01:19;;;;;;;;;;;;;;;22.90;38.81;101273.09;7395414;19;1706;-41
2023/10/10 08:03:47;;;;;;;;;;;;;;;22.79;39.16;101269.59;7394249;19;1845;-41
2023/10/10 08:06:21;;;;;;;;;;;;;;;22.85;38.98;101276.25;7394978;19;1508;-41
2023/10/10 08:09:10;;;;;;;;;;;;;;;22.87;38.40;101282.34;7394661;19;1930;-41
2023/10/10 08:11:41;;;;;;;;;;;;;;;23.02;37.72;101271.97;7394975;19;1784;-41
2023/10/10 08:14:10;;;;;;;;;;;;;;;22.94;38.68;101271.78;7393770;19;1774;-41
2023/10/10 08:16:39;;;;;;;;;;;;;;;22.91;39.08;101277.50;7393756;19;1772;-41
2023/10/10 08:19:08;;;;;;;;;;;;;;;22.91;39.13;101275.66;7393214;19;1828;-41
2023/10/10 08:21:39;;;;;;;;;;;;;;;22.91;39.00;101275.66;7394654;19;1784;-41
2023/10/10 08:24:12;;;;;;;;;;;;;;;22.91;39.27;101275.66;7393686;19;1855;-41
2023/10/10 08:26:44;;;;;;;;;;;;;;;23.02;37.71;101278.19;7375739;19;2549;-41
2023/10/10 08:29:14;;;;;;;;;;;;;;;22.98;38.51;101286.72;7392551;19;1808;-41
2023/10/10 08:31:44;;;;;;;;;;;;;;;22.91;39.04;101277.50;7392515;19;1748;-43
2023/10/10 08:34:13;;;;;;;;;;;;;;;22.99;39.04;101280.31;7393491;19;1595;-43
2023/10/10 08:36:43;;;;;;;;;;;;;;;22.92;39.17;101296.25;7394327;19;1785;-43
2023/10/10 08:39:25;;;;;;;;;;;;;;;22.93;38.11;101289.00;7393605;19;1165;-41
2023/10/10 08:41:56;;;;;;;;;;;;;;;23.02;38.77;101299.78;7393570;19;1284;-41
2023/10/10 08:44:24;;;;;;;;;;;;;;;23.04;37.56;101286.16;7393062;19;1847;-43
2023/10/10 08:46:55;;;;;;;;;;;;;;;22.93;38.27;101279.03;7392920;19;1856;-43
2023/10/10 08:49:23;;;;;;;;;;;;;;;23.05;38.26;101284.28;7392095;19;1635;-41
2023/10/10 08:51:54;;;;;;;;;;;;;;;23.05;38.13;101287.81;7392917;19;1828;-41
2023/10/10 08:54:24;;;;;;;;;;;;;;;23.08;36.11;101297.47;7391817;19;1741;-41
2023/10/10 08:57:03;;;;;;;;;;;;;;;23.03;38.23;101289.81;7391711;19;1741;-41
2023/10/10 08:59:35;;;;;;;;;;;;;;;23.11;37.07;101291.78;7392292;19;1900;-41
2023/10/10 09:02:16;;;;;;;;;;;;;;;23.08;38.31;101292.94;7398702;19;1725;-41
2023/10/10 09:04:44;;;;;;;;;;;;;;;23.13;38.13;101306.81;7397632;19;2507;-41
2023/10/10 09:07:20;;;;;;;;;;;;;;;23.12;37.73;101298.84;7400471;19;1571;-41
2023/10/10 09:09:54;;;;;;;;;;;;;;;23.05;38.85;101300.47;7400275;19;1201;-43
2023/10/10 09:12:23;;;;;;;;;;;;;;;22.76;38.55;101260.94;7400464;19;1914;-43
2023/10/10 09:14:54;;;;;;;;;;;;;;;22.97;38.75;101309.28;7398830;19;1776;-43
2023/10/10 09:17:32;;;;;;;;;;;;;;;23.06;36.70;101294.06;7399951;19;1911;-41
2023/10/10 09:20:12;;;;;;;;;;;;;;;23.06;37.76;101294.94;7399087;19;1844;-41
2023/10/10 09:22:51;;;;;;;;;;;;;;;23.05;38.55;101313.97;7398747;19;1825;-42
2023/10/10 09:25:25;;;;;;;;;;;;;;;23.10;38.32;101303.56;7398091;19;1862;-41
2023/10/10 09:28:03;;;;;;;;;;;;;;;23.12;38.18;101318.63;7384243;19;1681;-41
2023/10/10 09:30:38;;;;;;;;;;;;;;;22.98;38.57;101303.75;7398875;19;1812;-41
2023/10/10 09:33:22;;;;;;;;;;;;;;;23.06;38.20;101305.72;7400285;19;1706;-41
2023/10/10 09:35:53;;;;;;;;;;;;;;;23.20;38.02;101304.38;7398868;19;1397;-41
2023/10/10 09:38:21;;;;;;;;;;;;;;;23.13;38.17;101305.97;7398701;19;1725;-41
2023/10/10 09:40:59;;;;;;;;;;;;;;;23.13;38.00;101303.28;7399487;19;1452;-43
2023/10/10 09:43:35;;;;;;;;;;;;;;;22.99;37.89;101289.22;7399486;19;1355;-41
2023/10/10 09:46:11;;;;;;;;;;;;;;;22.96;38.58;101307.56;7397510;19;1861;-41
2023/10/10 09:54:15;;;;;;;;;;;;;;;23.05;36.41;101289.69;7399629;19;1551;-41
2023/10/10 09:56:45;;;;;;;;;;;;;;;23.05;36.48;101304.00;7398081;19;1471;-41
2023/10/10 09:59:14;;;;;;;;;;;;;;;22.99;38.21;101289.22;7397513;19;1474;-41
2023/10/10 10:01:48;;;;;;;;;;;;;;;22.99;37.88;101278.44;7398224;19;1547;-41
2023/10/10 10:04:18;;;;;;;;;;;;;;;22.97;38.40;101280.44;7397669;19;1856;-41
2023/10/10 10:07:12;;;;;;;;;;;;;;;22.95;38.36;101287.84;7399021;19;1546;-41
2023/10/10 10:09:54;;;;;;;;;;;;;;;22.95;38.72;101290.53;7397965;19;1467;-40
2023/10/10 10:12:33;;;;;;;;;;;;;;;22.90;38.45;101287.44;7396276;19;1547;-40
2023/10/10 10:15:12;;;;;;;;;;;;;;;22.92;38.54;101281.88;7398214;19;1761;-43
2023/10/10 10:17:49;;;;;;;;;;;;;;;22.94;37.94;101290.69;7397875;19;1462;-43
2023/10/10 10:20:25;;;;;;;;;;;;;;;22.89;38.29;101285.75;7398045;19;1737;-43
2023/10/10 10:22:59;;;;;;;;;;;;;;;22.91;38.00;101282.91;7398594;19;1841;-43
2023/10/10 10:25:31;;;;;;;;;;;;;;;22.89;38.09;101290.28;7396506;19;1955;-41
2023/10/10 10:28:10;;;;;;;;;;;;;;;22.90;38.46;101295.53;7382931;19;1795;-41
2023/10/10 10:30:50;;;;;;;;;;;;;;;22.91;38.39;101283.75;7396760;19;1710;-41
2023/10/10 10:33:24;;;;;;;;;;;;;;;22.94;37.32;101266.41;7398490;19;1673;-41
2023/10/10 10:36:06;;;;;;;;;;;;;;;22.93;38.36;101289.00;7397375;19;1471;-43
2023/10/10 10:38:39;;;;;;;;;;;;;;;22.90;38.16;101297.38;7397027;19;1548;-41
2023/10/10 10:41:07;;;;;;;;;;;;;;;22.87;38.20;101278.81;7398179;19;1733;-41
2023/10/10 10:43:38;;;;;;;;;;;;;;;22.80;38.48;101274.00;7397309;19;1671;-41
2023/10/10 10:46:12;;;;;;;;;;;;;;;22.91;37.83;101270.25;7394697;19;1850;-41
2023/10/10 10:48:47;;;;;;;;;;;;;;;22.93;38.05;101276.34;7396547;19;1496;-41
2023/10/10 10:51:25;;;;;;;;;;;;;;;22.95;36.57;101277.03;7396715;19;1499;-41
2023/10/10 10:53:56;;;;;;;;;;;;;;;22.84;38.42;101271.88;7396977;19;1492;-41
2023/10/10 10:56:37;;;;;;;;;;;;;;;22.78;38.68;101273.31;7395833;19;1486;-41
2023/10/10 10:59:19;;;;;;;;;;;;;;;22.80;38.43;101278.53;7396112;19;1477;-41
2023/10/10 11:01:55;;;;;;;;;;;;;;;22.78;37.66;101264.34;7395874;19;1551;-41
2023/10/10 11:04:42;;;;;;;;;;;;;;;22.78;37.70;101264.34;7394576;19;1843;-41
2023/10/10 11:07:16;;;;;;;;;;;;;;;22.82;37.82;101269.31;7395251;19;1609;-41
2023/10/10 11:09:52;;;;;;;;;;;;;;;22.89;37.63;101271.41;7395334;19;1560;-41
2023/10/10 11:12:21;;;;;;;;;;;;;;;22.88;37.73;101272.41;7395957;19;1855;-41
2023/10/10 11:14:50;;;;;;;;;;;;;;;22.78;37.82;101262.53;7396310;19;1633;-40
2023/10/10 11:17:21;;;;;;;;;;;;;;;22.79;37.91;101256.13;7397115;19;1752;-43
2023/10/10 11:19:57;;;;;;;;;;;;;;;22.84;37.66;101258.38;7394822;19;1934;-43
2023/10/10 11:22:41;;;;;;;;;;;;;;;22.82;38.27;101260.38;7394900;19;1852;-43
2023/10/10 11:25:11;;;;;;;;;;;;;;;22.79;37.50;101268.75;7394139;19;1841;-43
2023/10/10 11:27:43;;;;;;;;;;;;;;;22.78;37.58;101264.34;7379446;19;1365;-41
2023/10/10 11:30:19;;;;;;;;;;;;;;;22.80;36.80;101267.75;7394883;19;1515;-40
2023/10/10 11:32:48;;;;;;;;;;;;;;;22.82;37.42;101260.38;7395262;19;1466;-41
2023/10/10 11:35:26;;;;;;;;;;;;;;;22.82;37.69;101265.78;7394740;19;1866;-41
2023/10/10 11:38:06;;;;;;;;;;;;;;;22.78;38.14;101267.03;7394318;19;1794;-41
2023/10/10 11:40:34;;;;;;;;;;;;;;;22.77;37.76;101265.34;7394618;19;1823;-41
2023/10/10 11:43:04;;;;;;;;;;;;;;;22.82;37.97;101257.69;7393942;19;1682;-41
2023/10/10 11:45:39;;;;;;;;;;;;;;;22.80;37.76;101257.81;7394046;19;1834;-43
2023/10/10 11:48:12;;;;;;;;;;;;;;;22.89;37.71;101261.47;7394711;19;1685;-41
2023/10/10 11:50:50;;;;;;;;;;;;;;;22.87;38.04;101262.63;7393332;19;1595;-41
2023/10/10 11:53:23;;;;;;;;;;;;;;;22.87;37.87;101254.53;7394811;19;1804;-43
2023/10/10 11:55:52;;;;;;;;;;;;;;;22.80;38.08;101246.16;7394489;19;1840;-41
2023/10/10 11:58:20;;;;;;;;;;;;;;;22.79;38.15;101252.56;7394058;19;1939;-41
2023/10/10 12:00:59;;;;;;;;;;;;;;;22.78;38.09;101265.22;7394111;19;1681;-41
2023/10/10 12:03:32;;;;;;;;;;;;;;;22.77;37.19;101262.66;7394464;19;2057;-41
2023/10/10 12:06:03;;;;;;;;;;;;;;;22.87;37.21;101263.47;7393041;19;1867;-42
2023/10/10 12:08:36;;;;;;;;;;;;;;;22.81;37.57;101255.97;7394049;19;1819;-43
2023/10/10 12:11:06;;;;;;;;;;;;;;;22.80;37.68;101274.00;7393847;19;1448;-43
2023/10/10 12:13:38;;;;;;;;;;;;;;;22.78;37.75;101267.03;7393423;19;1765;-43
2023/10/10 12:16:10;;;;;;;;;;;;;;;22.76;36.99;101271.72;7394181;19;1812;-40
2023/10/10 12:18:43;;;;;;;;;;;;;;;22.77;37.43;101268.91;7394424;19;1772;-43
2023/10/10 12:21:20;;;;;;;;;;;;;;;22.75;37.05;101264.66;7394010;19;1475;-44
2023/10/10 12:23:49;;;;;;;;;;;;;;;22.74;37.13;101273.72;7394589;19;1975;-42
2023/10/10 12:26:18;;;;;;;;;;;;;;;22.79;36.41;101276.84;7392896;19;1844;-41
2023/10/10 12:28:47;;;;;;;;;;;;;;;22.83;37.05;101259.38;7379031;19;1809;-41
2023/10/10 12:31:18;;;;;;;;;;;;;;;22.79;37.37;101275.00;7394533;19;1730;-41
2023/10/10 12:33:48;;;;;;;;;;;;;;;22.75;37.54;101270.06;7393832;19;1594;-41
2023/10/10 12:36:22;;;;;;;;;;;;;;;22.78;36.74;101264.34;7390989;19;1544;-42
2023/10/10 12:38:50;;;;;;;;;;;;;;;22.75;36.49;101259.25;7393992;19;1745;-43
2023/10/10 12:41:20;;;;;;;;;;;;;;;22.74;37.04;101262.94;7392933;19;1664;-42
2023/10/10 12:43:48;;;;;;;;;;;;;;;22.72;36.61;101265.81;7394666;19;1105;-41
2023/10/10 12:46:20;;;;;;;;;;;;;;;22.75;37.07;101253.88;7391315;19;1847;-43
2023/10/10 12:48:51;;;;;;;;;;;;;;;22.77;36.75;101259.97;7393223;19;1777;-43
2023/10/10 12:51:23;;;;;;;;;;;;;;;22.94;36.27;101261.00;7392171;19;1812;-41
2023/10/10 12:53:59;;;;;;;;;;;;;;;22.85;36.34;101251.97;7392322;19;1559;-41
2023/10/10 12:56:28;;;;;;;;;;;;;;;22.84;36.91;101269.19;7393403;19;1662;-42
2023/10/10 12:59:00;;;;;;;;;;;;;;;22.79;37.00;101266.06;7392264;19;1845;-41
2023/10/10 13:01:32;;;;;;;;;;;;;;;22.85;36.24;101262.75;7393680;19;1512;-45
2023/10/10 13:04:07;;;;;;;;;;;;;;;22.80;36.38;101256.94;7393345;19;1800;-41
2023/10/10 13:06:39;;;;;;;;;;;;;;;22.77;36.59;101257.28;7390573;19;1895;-41
2023/10/10 13:09:08;;;;;;;;;;;;;;;22.75;36.30;101272.75;7393589;19;1757;-41
2023/10/10 13:11:43;;;;;;;;;;;;;;;22.78;36.71;101273.31;7392500;19;1952;-42
2023/10/10 13:14:15;;;;;;;;;;;;;;;22.75;36.46;101267.34;7391715;19;1808;-42
2023/10/10 13:17:13;;;;;;;;;;;;;;;22.71;36.71;101268.66;7391440;19;1546;-42
2023/10/10 13:19:42;;;;;;;;;;;;;;;22.84;36.78;101266.47;7391809;19;1614;-42
2023/10/10 13:22:20;;;;;;;;;;;;;;;22.80;36.32;101267.75;7392579;19;1284;-42
2023/10/10 13:24:49;;;;;;;;;;;;;;;22.82;36.52;101260.38;7393847;19;1765;-43
2023/10/10 13:27:17;;;;;;;;;;;;;;;22.98;35.90;101244.41;7379941;19;1838;-41
2023/10/10 13:29:46;;;;;;;;;;;;;;;23.10;35.59;101247.78;7389801;19;1554;-41
2023/10/10 13:32:14;;;;;;;;;;;;;;;23.07;35.66;101266.09;7391586;19;1401;-41
2023/10/10 13:34:42;;;;;;;;;;;;;;;23.01;35.88;101264.81;7389436;19;1401;-41
2023/10/10 13:37:13;;;;;;;;;;;;;;;23.09;35.88;101256.84;7391633;19;1414;-42
2023/10/10 13:39:43;;;;;;;;;;;;;;;23.12;35.53;101271.88;7392053;19;1389;-42
2023/10/10 13:42:14;;;;;;;;;;;;;;;23.06;35.83;101267.09;7391250;19;1850;-42
2023/10/10 13:44:42;;;;;;;;;;;;;;;22.95;35.55;101270.81;7389891;19;2614;-42
2023/10/10 13:47:11;;;;;;;;;;;;;;;23.06;35.48;101250.91;7392340;19;1851;-43
2023/10/10 13:49:44;;;;;;;;;;;;;;;22.98;35.47;101252.50;7398156;19;1456;-42
2023/10/10 13:52:16;;;;;;;;;;;;;;;23.06;35.86;101251.78;7398670;19;1425;-42
2023/10/10 13:54:44;;;;;;;;;;;;;;;23.08;35.56;101263.25;7399837;19;1624;-42
2023/10/10 13:57:13;;;;;;;;;;;;;;;23.07;35.74;101241.81;7398204;19;1860;-42
2023/10/10 13:59:42;;;;;;;;;;;;;;;23.09;36.15;101245.22;7398255;19;1748;-42
2023/10/10 14:02:10;;;;;;;;;;;;;;;23.12;35.63;101258.38;7397605;19;1426;-41
2023/10/10 14:04:50;;;;;;;;;;;;;;;23.10;35.16;101255.00;7398975;19;1634;-41
2023/10/10 14:07:21;;;;;;;;;;;;;;;23.08;35.17;101275.88;7396914;19;1839;-41
2023/10/10 14:09:50;;;;;;;;;;;;;;;22.96;35.25;101262.56;7398461;19;1929;-41
2023/10/10 14:12:22;;;;;;;;;;;;;;;23.03;35.26;101287.13;7399317;19;1864;-41
2023/10/10 14:14:51;;;;;;;;;;;;;;;22.97;35.11;101263.41;7396430;19;1824;-41
2023/10/10 14:17:20;;;;;;;;;;;;;;;23.04;35.21;101269.97;7397642;19;1721;-41
2023/10/10 14:19:49;;;;;;;;;;;;;;;23.02;34.99;101267.41;7397021;19;1619;-44
2023/10/10 14:22:22;;;;;;;;;;;;;;;22.98;34.93;101279.47;7397521;19;1340;-40
2023/10/10 14:24:53;;;;;;;;;;;;;;;22.93;35.20;101273.66;7398691;19;1843;-40
2023/10/10 14:27:23;;;;;;;;;;;;;;;22.95;35.19;101293.22;7393888;19;2388;-41
2023/10/10 14:29:51;;;;;;;;;;;;;;;22.88;35.22;101289.44;7384330;19;1594;-41
2023/10/10 14:32:19;;;;;;;;;;;;;;;22.89;35.31;101291.13;7397209;19;1714;-40
2023/10/10 14:34:47;;;;;;;;;;;;;;;22.88;35.17;101297.53;7393868;19;2314;-41
2023/10/10 14:37:16;;;;;;;;;;;;;;;22.88;35.05;101299.38;7396109;19;1502;-41
2023/10/10 14:39:51;;;;;;;;;;;;;;;22.88;35.16;101297.53;7395644;19;1811;-40
2023/10/10 14:42:22;;;;;;;;;;;;;;;22.84;35.12;101307.78;7394695;19;1724;-43
2023/10/10 14:44:53;;;;;;;;;;;;;;;22.81;34.92;101302.66;7393614;19;1551;-41
2023/10/10 14:47:23;;;;;;;;;;;;;;;22.83;35.04;101326.78;7390174;19;1850;-41
2023/10/10 14:49:56;;;;;;;;;;;;;;;22.78;35.08;101312.88;7393015;19;1460;-41
2023/10/10 14:52:24;;;;;;;;;;;;;;;22.75;35.02;101319.41;7396600;19;1710;-42
2023/10/10 14:54:52;;;;;;;;;;;;;;;22.81;34.77;101340.41;7394760;19;1723;-42
2023/10/10 14:57:29;;;;;;;;;;;;;;;22.74;35.04;101333.03;7396531;19;1417;-42
2023/10/10 14:59:58;;;;;;;;;;;;;;;22.73;35.21;101332.19;7395246;19;1816;-42
2023/10/10 15:02:27;;;;;;;;;;;;;;;22.71;35.54;101352.22;7395669;19;1538;-43
2023/10/10 15:04:55;;;;;;;;;;;;;;;22.89;35.43;101346.91;7395043;19;1399;-42
2023/10/10 15:07:27;;;;;;;;;;;;;;;22.87;35.76;101352.47;7393455;19;1843;-42
2023/10/10 15:09:57;;;;;;;;;;;;;;;23.06;36.22;101361.50;7396186;19;1474;-42
2023/10/10 15:12:28;;;;;;;;;;;;;;;23.02;36.93;101356.41;7396299;19;1809;-41
2023/10/10 15:14:57;;;;;;;;;;;;;;;22.87;36.13;101360.53;7394408;19;2067;-41